createdAt,value
2023-04-17T00:02:01.559Z,41.60
2023-04-17T00:06:04.249Z,42.22
2023-04-17T00:10:10.481Z,46.40
2023-04-17T00:14:12.462Z,39.35
2023-04-17T00:18:14.572Z,42.05
2023-04-17T00:22:16.614Z,46.15
2023-04-17T00:26:19.663Z,45.95
2023-04-17T00:30:21.745Z,40.58
2023-04-17T00:34:23.761Z,45.10
2023-04-17T00:38:26.227Z,42.45
2023-04-17T00:42:28.421Z,46.03
2023-04-17T00:46:31.379Z,40.80
2023-04-17T00:50:33.605Z,42.30
2023-04-17T00:54:35.985Z,47.47
2023-04-17T00:58:38.235Z,37.90
2023-04-17T01:02:41.004Z,41.28
2023-04-17T01:06:43.235Z,46.05
2023-04-17T01:10:45.914Z,41.60
2023-04-17T01:14:50.867Z,40.15
2023-04-17T01:18:52.961Z,40.92
2023-04-17T01:22:54.927Z,45.92
2023-04-17T01:26:57.065Z,40.95
2023-04-17T01:30:59.302Z,41.17
2023-04-17T01:35:02.186Z,45.22
2023-04-17T01:39:04.357Z,40.33
2023-04-17T01:43:07.030Z,45.22
2023-04-17T01:47:09.113Z,41.50
2023-04-17T01:51:11.248Z,41.10
2023-04-17T01:55:13.357Z,49.08
2023-04-17T01:59:15.796Z,44.38
2023-04-17T02:03:18.296Z,40.45
2023-04-17T02:07:20.699Z,45.90
2023-04-17T02:11:22.748Z,52.65
2023-04-17T02:15:26.245Z,47.58
2023-04-17T02:19:28.246Z,48.25
2023-04-17T02:23:30.250Z,47.65
2023-04-17T02:27:32.618Z,46.83
2023-04-17T02:31:34.664Z,45.92
2023-04-17T02:35:36.855Z,42.97
2023-04-17T02:39:39.139Z,44.03
2023-04-17T02:43:41.188Z,47.10
2023-04-17T02:47:45.095Z,53.35
2023-04-17T02:51:47.732Z,52.42
2023-04-17T02:55:49.790Z,52.05
2023-04-17T02:59:54.231Z,51.58
2023-04-17T03:03:56.896Z,52.63
2023-04-17T03:07:59.638Z,52.42
2023-04-17T03:12:06.136Z,51.72
2023-04-17T03:16:08.563Z,53.45
2023-04-17T03:20:12.884Z,54.38
2023-04-17T03:24:14.877Z,58.05
2023-04-17T03:28:16.944Z,56.55
2023-04-17T03:32:19.597Z,58.95
2023-04-17T03:36:21.641Z,66.78
2023-04-17T03:40:23.961Z,60.90
2023-04-17T03:44:26.044Z,53.95
2023-04-17T03:48:28.493Z,59.30
2023-04-17T03:52:30.688Z,57.90
2023-04-17T03:56:34.194Z,59.88
2023-04-17T04:00:37.440Z,62.00
2023-04-17T04:04:43.649Z,61.15
2023-04-17T04:08:49.638Z,59.15
2023-04-17T04:12:52.273Z,59.75
2023-04-17T04:16:54.934Z,60.85
2023-04-17T04:20:57.026Z,55.80
2023-04-17T04:25:04.211Z,52.20
2023-04-17T04:29:25.579Z,55.78
2023-04-17T04:33:35.881Z,53.40
2023-04-17T04:37:38.298Z,50.95
2023-04-17T04:41:46.185Z,48.38
2023-04-17T04:45:49.417Z,55.55
2023-04-17T04:49:52.168Z,46.78
2023-04-17T04:53:56.643Z,44.50
2023-04-17T04:57:59.463Z,44.15
2023-04-17T05:02:02.536Z,46.55
2023-04-17T05:06:04.741Z,48.45
2023-04-17T05:10:14.433Z,45.03
2023-04-17T05:14:22.704Z,39.13
2023-04-17T05:18:25.041Z,43.08
2023-04-17T05:22:27.589Z,42.60
2023-04-17T05:26:44.037Z,45.42
2023-04-17T05:30:46.197Z,44.67
2023-04-17T05:34:57.848Z,41.97
2023-04-17T05:39:02.373Z,50.50
2023-04-17T05:43:09.847Z,45.45
2023-04-17T05:47:12.904Z,42.38
2023-04-17T05:51:15.011Z,50.90
2023-04-17T05:55:20.002Z,51.08
2023-04-17T05:59:25.351Z,47.75
2023-04-17T06:03:28.162Z,44.25
2023-04-17T06:07:53.597Z,42.13
2023-04-17T06:11:57.203Z,43.97
2023-04-17T06:15:59.290Z,43.83
2023-04-17T06:20:01.331Z,40.00
2023-04-17T06:24:03.904Z,40.50
2023-04-17T06:28:05.975Z,31.70
2023-04-17T06:32:08.180Z,33.65
2023-04-17T06:36:12.027Z,31.50
2023-04-17T06:40:23.578Z,31.05
2023-04-17T06:44:27.139Z,31.65
2023-04-17T06:48:30.015Z,32.53
2023-04-17T06:52:32.011Z,39.53
2023-04-17T06:56:34.156Z,26.70
2023-04-17T07:00:36.431Z,27.13
2023-04-17T07:04:38.622Z,31.92
2023-04-17T07:08:40.649Z,32.72
2023-04-17T07:12:42.774Z,32.58
2023-04-17T07:16:44.886Z,26.98
2023-04-17T07:20:47.913Z,29.02
2023-04-17T07:24:50.062Z,25.58
2023-04-17T07:28:52.135Z,27.83
2023-04-17T07:32:54.305Z,25.15
2023-04-17T07:36:56.718Z,27.73
2023-04-17T07:40:59.150Z,25.00
2023-04-17T07:45:01.268Z,27.92
2023-04-17T07:49:03.322Z,26.52
2023-04-17T07:53:05.561Z,26.25
2023-04-17T07:57:08.242Z,28.70
2023-04-17T08:01:10.651Z,28.45
2023-04-17T08:05:12.753Z,27.25
2023-04-17T08:09:14.819Z,27.23
2023-04-17T08:13:16.814Z,27.63
2023-04-17T08:17:22.965Z,24.75
2023-04-17T08:21:25.083Z,25.67
2023-04-17T08:25:27.585Z,25.40
2023-04-17T08:29:29.603Z,18.73
2023-04-17T08:33:31.767Z,23.23
2023-04-17T08:37:35.970Z,25.73
2023-04-17T08:42:00.405Z,27.17
2023-04-17T08:46:03.517Z,22.85
2023-04-17T08:50:14.060Z,22.25
2023-04-17T08:54:16.095Z,20.85
2023-04-17T08:58:18.198Z,21.77
2023-04-17T09:02:20.784Z,29.08
2023-04-17T09:06:23.098Z,21.13
2023-04-17T09:10:35.806Z,24.52
2023-04-17T09:14:37.848Z,24.83
2023-04-17T09:18:42.554Z,22.45
2023-04-17T09:22:44.717Z,22.05
2023-04-17T09:26:46.679Z,17.00
2023-04-17T09:30:48.768Z,23.05
2023-04-17T09:34:51.125Z,20.73
2023-04-17T09:38:53.897Z,23.63
2023-04-17T09:43:02.089Z,22.95
2023-04-17T09:47:05.054Z,23.52
2023-04-17T09:51:07.747Z,22.42
2023-04-17T09:55:11.778Z,23.67
2023-04-17T09:59:14.871Z,22.83
2023-04-17T10:03:17.886Z,23.55
2023-04-17T10:07:20.144Z,20.80
2023-04-17T10:11:29.914Z,19.95
2023-04-17T10:15:33.780Z,17.70
2023-04-17T10:19:36.716Z,20.98
2023-04-17T10:23:40.051Z,22.05
2023-04-17T10:27:42.948Z,20.92
2023-04-17T10:32:07.189Z,22.58
2023-04-17T10:36:38.394Z,22.63
2023-04-17T10:40:43.560Z,19.92
2023-04-17T10:44:46.619Z,20.17
2023-04-17T10:48:53.139Z,20.30
2023-04-17T10:52:55.531Z,19.27
2023-04-17T10:56:58.448Z,18.85
2023-04-17T11:01:09.353Z,20.33
2023-04-17T11:05:12.701Z,19.38
2023-04-17T11:09:16.131Z,16.30
2023-04-17T11:13:18.647Z,19.63
2023-04-17T11:17:21.474Z,18.45
2023-04-17T11:21:23.579Z,14.90
2023-04-17T11:25:27.840Z,17.60
2023-04-17T11:29:29.927Z,14.32
2023-04-17T11:33:36.910Z,17.02
2023-04-17T11:38:04.813Z,13.07
2023-04-17T11:42:06.816Z,12.77
2023-04-17T11:46:08.808Z,15.63
2023-04-17T11:50:11.096Z,16.88
2023-04-17T11:54:29.887Z,16.67
2023-04-17T11:58:32.037Z,16.45
2023-04-17T12:02:34.221Z,14.57
2023-04-17T12:06:37.807Z,16.55
2023-04-17T12:10:42.170Z,18.05
2023-04-17T12:14:44.281Z,14.68
2023-04-17T12:18:46.399Z,17.45
2023-04-17T12:22:48.703Z,13.25
2023-04-17T12:26:51.766Z,14.40
2023-04-17T12:30:53.880Z,12.65
2023-04-17T12:34:56.306Z,18.70
2023-04-17T12:38:58.452Z,10.73
2023-04-17T12:43:00.760Z,12.55
2023-04-17T12:47:02.841Z,13.75
2023-04-17T12:51:04.970Z,15.38
2023-04-17T12:55:08.494Z,13.75
2023-04-17T12:59:10.949Z,9.02
2023-04-17T13:03:13.425Z,11.32
2023-04-17T13:07:15.489Z,10.18
2023-04-17T13:11:17.608Z,8.38
2023-04-17T13:15:19.923Z,8.68
2023-04-17T13:19:22.037Z,8.88
2023-04-17T13:23:24.176Z,9.40
2023-04-17T13:27:26.583Z,9.98
2023-04-17T13:31:28.655Z,9.00
2023-04-17T13:35:31.026Z,7.70
2023-04-17T13:39:33.088Z,11.77
2023-04-17T13:43:35.139Z,10.82
2023-04-17T13:47:37.302Z,7.60
2023-04-17T13:51:39.452Z,7.45
2023-04-17T13:55:41.510Z,7.82
2023-04-17T13:59:43.716Z,10.98
2023-04-17T14:03:46.420Z,9.77
2023-04-17T14:07:48.630Z,10.23
2023-04-17T14:11:50.629Z,8.98
2023-04-17T14:15:54.739Z,10.88
2023-04-17T14:19:56.833Z,9.43
2023-04-17T14:23:58.846Z,8.13
2023-04-17T14:28:00.882Z,7.97
2023-04-17T14:32:03.040Z,9.70
2023-04-17T14:36:06.050Z,9.25
2023-04-17T14:40:08.656Z,11.05
2023-04-17T14:44:10.898Z,10.18
2023-04-17T14:48:13.709Z,11.10
2023-04-17T14:52:15.767Z,9.48
2023-04-17T14:56:18.031Z,10.93
2023-04-17T15:00:20.902Z,12.23
2023-04-17T15:04:23.098Z,10.77
2023-04-17T15:08:25.655Z,11.45
2023-04-17T15:12:28.066Z,10.85
2023-04-17T15:16:30.694Z,12.13
2023-04-17T15:20:34.073Z,10.15
2023-04-17T15:24:37.193Z,11.15
2023-04-17T15:28:40.053Z,10.45
2023-04-17T15:32:42.664Z,14.38
2023-04-17T15:36:44.801Z,13.60
2023-04-17T15:40:46.847Z,12.13
2023-04-17T15:44:49.357Z,8.60
2023-04-17T15:49:04.981Z,14.57
2023-04-17T15:53:10.692Z,13.00
2023-04-17T15:57:12.756Z,12.68
2023-04-17T16:01:14.812Z,14.57
2023-04-17T16:05:17.260Z,12.98
2023-04-17T16:09:23.822Z,15.45
2023-04-17T16:13:25.960Z,11.88
2023-04-17T16:17:28.135Z,15.77
2023-04-17T16:21:30.805Z,13.75
2023-04-17T16:25:32.941Z,12.77
2023-04-17T16:29:35.450Z,10.57
2023-04-17T16:33:39.638Z,13.60
2023-04-17T16:37:41.856Z,10.52
2023-04-17T16:41:43.892Z,9.90
2023-04-17T16:45:46.236Z,10.25
2023-04-17T16:49:48.325Z,10.13
2023-04-17T16:53:50.816Z,12.77
2023-04-17T16:57:53.118Z,14.00
2023-04-17T17:01:55.435Z,10.60
2023-04-17T17:05:57.621Z,10.23
2023-04-17T17:10:00.131Z,9.48
2023-04-17T17:14:02.361Z,9.93
2023-04-17T17:18:04.825Z,13.98
2023-04-17T17:22:06.916Z,12.25
2023-04-17T17:26:09.210Z,11.73
2023-04-17T17:30:12.771Z,12.30
2023-04-17T17:38:19.989Z,15.57
2023-04-17T17:42:22.958Z,12.23
2023-04-17T17:46:30.589Z,11.73
2023-04-17T17:50:32.721Z,11.63
2023-04-17T17:54:36.855Z,12.48
2023-04-17T17:58:38.969Z,13.40
2023-04-17T18:02:41.174Z,10.35
2023-04-17T18:06:43.608Z,13.63
2023-04-17T18:10:47.433Z,18.80
2023-04-17T18:14:49.897Z,15.90
2023-04-17T18:18:51.925Z,14.27
2023-04-17T18:22:54.331Z,15.60
2023-04-17T18:26:57.182Z,17.35
2023-04-17T18:30:59.164Z,16.92
2023-04-17T18:35:04.022Z,17.08
2023-04-17T18:39:06.335Z,17.77
2023-04-17T18:43:10.142Z,13.88
2023-04-17T18:47:12.316Z,14.27
2023-04-17T18:51:14.918Z,19.23
2023-04-17T18:55:17.537Z,17.42
2023-04-17T18:59:21.314Z,15.30
2023-04-17T19:03:23.485Z,11.73
2023-04-17T19:07:26.064Z,16.63
2023-04-17T19:11:28.979Z,15.75
2023-04-17T19:15:31.099Z,16.58
2023-04-17T19:19:33.139Z,17.60
2023-04-17T19:23:36.953Z,17.48
2023-04-17T19:27:39.168Z,20.08
2023-04-17T19:31:41.539Z,20.10
2023-04-17T19:35:44.609Z,19.23
2023-04-17T19:39:46.648Z,22.15
2023-04-17T19:43:50.815Z,19.88
2023-04-17T19:47:56.965Z,22.08
2023-04-17T19:52:00.896Z,21.90
2023-04-17T19:56:08.489Z,26.48
2023-04-17T20:00:12.049Z,24.38
2023-04-17T20:04:18.858Z,25.47
2023-04-17T20:08:21.281Z,22.45
2023-04-17T20:12:23.456Z,22.42
2023-04-17T20:16:25.532Z,24.40
2023-04-17T20:20:27.657Z,26.63
2023-04-17T20:24:29.647Z,25.65
2023-04-17T20:28:31.839Z,23.75
2023-04-17T20:32:33.832Z,27.27
2023-04-17T20:36:35.934Z,27.00
2023-04-17T20:40:38.089Z,24.50
2023-04-17T20:44:40.434Z,27.90
2023-04-17T20:48:42.787Z,22.63
2023-04-17T20:52:44.845Z,28.73
2023-04-17T20:56:47.263Z,29.15
2023-04-17T21:01:00.653Z,28.20
2023-04-17T21:05:06.255Z,24.90
2023-04-17T21:09:08.924Z,30.63
2023-04-17T21:13:10.981Z,29.33
2023-04-17T21:17:13.104Z,36.33
2023-04-17T21:21:15.046Z,31.45
2023-04-17T21:25:17.131Z,38.63
2023-04-17T21:29:19.202Z,27.35
2023-04-17T21:33:21.316Z,35.22
2023-04-17T21:37:23.261Z,32.70
2023-04-17T21:41:26.063Z,35.55
2023-04-17T21:45:28.021Z,36.35
2023-04-17T21:49:30.036Z,37.22
2023-04-17T21:53:36.466Z,38.97
2023-04-17T21:57:39.356Z,41.50
2023-04-17T22:01:41.366Z,40.97
2023-04-17T22:05:44.029Z,38.58
2023-04-17T22:09:46.014Z,40.85
2023-04-17T22:13:48.160Z,44.45
2023-04-17T22:17:50.640Z,43.15
2023-04-17T22:21:52.777Z,47.45
2023-04-17T22:25:54.683Z,48.78
2023-04-17T22:29:56.839Z,40.47
2023-04-17T22:33:59.160Z,43.08
2023-04-17T22:38:01.236Z,42.00
2023-04-17T22:42:03.281Z,45.10
2023-04-17T22:46:05.341Z,44.58
2023-04-17T22:50:08.168Z,41.20
2023-04-17T22:54:21.518Z,46.72
2023-04-17T22:58:24.935Z,47.63
2023-04-17T23:02:27.043Z,49.42
2023-04-17T23:06:29.143Z,48.28
2023-04-17T23:10:31.553Z,57.75
2023-04-17T23:14:33.805Z,62.35
2023-04-17T23:18:37.305Z,56.10
2023-04-17T23:22:39.321Z,61.35
2023-04-17T23:26:41.915Z,50.50
2023-04-17T23:30:43.914Z,48.00
2023-04-17T23:34:45.888Z,51.60
2023-04-17T23:38:47.903Z,56.08
2023-04-17T23:42:50.029Z,48.97
2023-04-17T23:46:52.044Z,51.47
2023-04-17T23:50:54.311Z,49.92
2023-04-17T23:54:56.673Z,48.67
2023-04-17T23:58:58.809Z,49.63
